createdAt,value
2022-08-07T00:01:44.609Z,95293.66
2022-08-07T00:04:09.637Z,95284.03
2022-08-07T00:06:41.134Z,95302.84
2022-08-07T00:09:22.171Z,95279.75
2022-08-07T00:11:56.012Z,95288.09
2022-08-07T00:14:30.550Z,95298.22
2022-08-07T00:17:01.976Z,95304.94
2022-08-07T00:19:59.540Z,95273.81
2022-08-07T00:22:24.569Z,95279.53
2022-08-07T00:25:04.878Z,95283.63
2022-08-07T00:27:51.845Z,95291.97
2022-08-07T00:30:21.920Z,95287.19
2022-08-07T00:32:54.755Z,95296.38
2022-08-07T00:35:23.153Z,95288.59
2022-08-07T00:37:50.407Z,95285.94
2022-08-07T00:40:36.521Z,95278.84
2022-08-07T00:43:04.325Z,95273.28
2022-08-07T00:45:36.719Z,95261.06
2022-08-07T00:48:09.083Z,95266.72
2022-08-07T00:50:46.161Z,95280.59
2022-08-07T00:53:20.106Z,95269.25
2022-08-07T00:56:02.383Z,95271.91
2022-08-07T00:58:31.429Z,95268.16
2022-08-07T01:00:58.412Z,95249.84
2022-08-07T01:03:54.858Z,95270.81
2022-08-07T01:06:12.325Z,95257.16
2022-08-07T01:08:43.320Z,95261.59
2022-08-07T01:12:04.425Z,95257.31
2022-08-07T01:14:07.872Z,95256.41
2022-08-07T01:16:36.655Z,95253.03
2022-08-07T01:19:04.732Z,95252.69
2022-08-07T01:21:41.400Z,95245.75
2022-08-07T01:24:09.242Z,95249.97
2022-08-07T01:26:36.820Z,95224.75
2022-08-07T01:29:04.587Z,95252.50
2022-08-07T01:31:42.465Z,95244.16
2022-08-07T01:34:14.729Z,95243.94
2022-08-07T01:36:41.928Z,95231.53
2022-08-07T01:39:11.016Z,95232.44
2022-08-07T01:42:01.711Z,95235.09
2022-08-07T01:44:26.139Z,95229.22
2022-08-07T01:46:53.275Z,95232.09
2022-08-07T01:49:21.418Z,95231.13
2022-08-07T01:52:01.694Z,95243.13
2022-08-07T01:54:37.108Z,95227.06
2022-08-07T01:57:08.413Z,95220.16
2022-08-07T01:59:53.940Z,95228.44
2022-08-07T02:03:11.334Z,95232.91
2022-08-07T02:05:43.205Z,95236.06
2022-08-07T02:08:10.899Z,95225.41
2022-08-07T02:10:42.887Z,95228.81
2022-08-07T02:13:10.851Z,95207.63
2022-08-07T02:15:39.721Z,95216.25
2022-08-07T02:18:10.015Z,95216.94
2022-08-07T02:20:40.215Z,95215.47
2022-08-07T02:23:11.195Z,95211.75
2022-08-07T02:26:30.830Z,95205.88
2022-08-07T02:28:29.557Z,95219.03
2022-08-07T02:30:57.740Z,95212.59
2022-08-07T02:33:32.724Z,95204.03
2022-08-07T02:36:29.206Z,95206.91
2022-08-07T02:39:01.555Z,95202.28
2022-08-07T02:41:33.586Z,95207.78
2022-08-07T02:44:05.153Z,95199.75
2022-08-07T02:46:36.816Z,95205.50
2022-08-07T02:49:05.591Z,95219.06
2022-08-07T02:51:42.576Z,95203.50
2022-08-07T02:54:20.628Z,95220.22
2022-08-07T02:56:53.747Z,95213.66
2022-08-07T02:59:27.725Z,95217.03
2022-08-07T03:01:55.518Z,95214.97
2022-08-07T03:04:23.603Z,95220.28
2022-08-07T03:06:52.514Z,95212.81
2022-08-07T03:09:43.443Z,95201.78
2022-08-07T03:12:21.662Z,95216.56
2022-08-07T03:14:52.294Z,95216.31
2022-08-07T03:17:19.902Z,95214.13
2022-08-07T03:19:54.840Z,95211.78
2022-08-07T03:22:24.260Z,95227.63
2022-08-07T03:24:57.304Z,95217.88
2022-08-07T03:27:30.286Z,95221.97
2022-08-07T03:30:10.841Z,95222.31
2022-08-07T03:32:56.974Z,95229.03
2022-08-07T03:35:27.577Z,95224.91
2022-08-07T03:38:13.375Z,95219.25
2022-08-07T03:40:40.302Z,95211.34
2022-08-07T03:43:14.617Z,95222.09
2022-08-07T03:45:43.688Z,95200.72
2022-08-07T03:48:14.831Z,95214.59
2022-08-07T03:50:43.187Z,95217.50
2022-08-07T03:53:50.006Z,95205.72
2022-08-07T03:56:10.600Z,95217.38
2022-08-07T03:59:08.891Z,95207.59
2022-08-07T04:01:30.197Z,95202.44
2022-08-07T04:03:59.169Z,95197.06
2022-08-07T04:06:36.182Z,95205.91
2022-08-07T04:09:05.682Z,95208.56
2022-08-07T04:12:27.984Z,95193.84
2022-08-07T04:14:37.721Z,95197.88
2022-08-07T04:17:19.770Z,95208.00
2022-08-07T04:19:51.903Z,95206.16
2022-08-07T04:22:23.575Z,95205.84
2022-08-07T04:24:55.869Z,95204.28
2022-08-07T04:27:25.634Z,95197.28
2022-08-07T04:30:01.629Z,95201.38
2022-08-07T04:32:34.733Z,95200.66
2022-08-07T04:35:05.371Z,95206.84
2022-08-07T04:37:52.825Z,95206.09
2022-08-07T04:40:20.510Z,95194.03
2022-08-07T04:42:46.996Z,95192.81
2022-08-07T04:45:52.141Z,95198.97
2022-08-07T04:48:13.004Z,95205.31
2022-08-07T04:50:52.161Z,95205.41
2022-08-07T04:53:27.845Z,95203.56
2022-08-07T04:58:12.230Z,95197.19
2022-08-07T05:00:09.632Z,95195.22
2022-08-07T05:02:20.587Z,95200.00
2022-08-07T05:05:11.548Z,95203.81
2022-08-07T05:08:16.250Z,95202.31
2022-08-07T05:10:50.844Z,95198.38
2022-08-07T05:14:52.818Z,95197.28
2022-08-07T05:16:29.397Z,95194.66
2022-08-07T05:19:07.537Z,95214.09
2022-08-07T05:21:58.976Z,95187.72
2022-08-07T05:24:24.732Z,95215.50
2022-08-07T05:26:59.668Z,95205.84
2022-08-07T05:29:27.829Z,95211.66
2022-08-07T05:32:15.520Z,95204.25
2022-08-07T05:34:42.874Z,95196.63
2022-08-07T05:37:10.641Z,95203.63
2022-08-07T05:40:14.084Z,95204.03
2022-08-07T05:42:34.291Z,95204.03
2022-08-07T05:45:14.436Z,95189.19
2022-08-07T05:48:01.571Z,95199.66
2022-08-07T05:50:31.020Z,95207.84
2022-08-07T05:52:58.021Z,95210.28
2022-08-07T05:55:25.600Z,95213.09
2022-08-07T05:58:12.991Z,95213.38
2022-08-07T06:00:41.123Z,95217.34
2022-08-07T06:03:15.568Z,95212.47
2022-08-07T06:05:49.104Z,95227.34
2022-08-07T06:08:30.971Z,95223.66
2022-08-07T06:10:59.509Z,95230.47
2022-08-07T06:14:10.795Z,95224.25
2022-08-07T06:16:18.835Z,95224.13
2022-08-07T06:18:51.814Z,95230.94
2022-08-07T06:22:16.647Z,95222.22
2022-08-07T06:24:46.034Z,95226.28
2022-08-07T06:26:55.807Z,95229.56
2022-08-07T06:29:27.887Z,95228.06
2022-08-07T06:31:55.920Z,95223.16
2022-08-07T06:34:29.805Z,95235.19
2022-08-07T06:36:57.057Z,95233.25
2022-08-07T06:40:13.051Z,95242.72
2022-08-07T06:42:39.899Z,95240.00
2022-08-07T06:45:13.323Z,95232.53
2022-08-07T06:47:57.396Z,95224.50
2022-08-07T06:50:26.956Z,95217.88
2022-08-07T06:52:58.045Z,95228.47
2022-08-07T06:55:54.021Z,95233.59
2022-08-07T06:58:16.671Z,95230.78
2022-08-07T07:00:48.310Z,95233.03
2022-08-07T07:03:26.512Z,95222.19
2022-08-07T07:06:10.972Z,95234.84
2022-08-07T07:08:39.761Z,95234.84
2022-08-07T07:12:08.494Z,95229.63
2022-08-07T07:14:02.262Z,95224.34
2022-08-07T07:16:33.345Z,95234.91
2022-08-07T07:19:11.441Z,95237.84
2022-08-07T07:22:05.431Z,95223.16
2022-08-07T07:24:43.234Z,95226.13
2022-08-07T07:27:35.845Z,95223.41
2022-08-07T07:30:32.783Z,95220.03
2022-08-07T07:33:03.745Z,95216.53
2022-08-07T07:35:33.750Z,95208.13
2022-08-07T07:38:20.595Z,95201.53
2022-08-07T07:40:50.296Z,95209.59
2022-08-07T07:43:18.730Z,95198.88
2022-08-07T07:46:37.884Z,95205.53
2022-08-07T07:48:42.532Z,95210.72
2022-08-07T07:51:12.859Z,95216.13
2022-08-07T07:53:51.683Z,95205.13
2022-08-07T07:56:29.792Z,95198.25
2022-08-07T07:58:59.627Z,95207.56
2022-08-07T08:02:01.610Z,95208.59
2022-08-07T08:04:17.294Z,95210.72
2022-08-07T08:06:50.681Z,95204.72
2022-08-07T08:09:23.203Z,95192.69
2022-08-07T08:12:02.413Z,95200.56
2022-08-07T08:14:36.492Z,95204.31
2022-08-07T08:18:36.432Z,95194.41
2022-08-07T08:20:17.030Z,95198.53
2022-08-07T08:23:08.219Z,95195.13
2022-08-07T08:25:56.637Z,95206.84
2022-08-07T08:28:38.627Z,95202.72
2022-08-07T08:31:13.844Z,95208.38
2022-08-07T08:33:49.579Z,95201.44
2022-08-07T08:36:30.022Z,95214.19
2022-08-07T08:38:59.986Z,95214.56
2022-08-07T08:41:58.762Z,95212.41
2022-08-07T08:44:48.582Z,95203.72
2022-08-07T08:47:26.892Z,95203.47
2022-08-07T08:50:08.800Z,95211.66
2022-08-07T08:52:54.078Z,95203.28
2022-08-07T08:55:55.379Z,95217.53
2022-08-07T08:58:32.869Z,95192.06
2022-08-07T09:01:15.334Z,95214.13
2022-08-07T09:03:55.314Z,95197.59
2022-08-07T09:06:36.708Z,95211.53
2022-08-07T09:09:23.604Z,95214.84
2022-08-07T09:12:20.083Z,95206.34
2022-08-07T09:16:20.082Z,95208.88
2022-08-07T09:18:40.371Z,95217.91
2022-08-07T09:21:34.470Z,95213.31
2022-08-07T09:24:55.985Z,95209.25
2022-08-07T09:27:59.700Z,95212.09
2022-08-07T09:30:55.091Z,95198.25
2022-08-07T09:33:56.817Z,95218.13
2022-08-07T09:36:28.565Z,95212.81
2022-08-07T09:39:27.438Z,95207.47
2022-08-07T09:42:24.945Z,95215.66
2022-08-07T09:47:25.642Z,95209.78
2022-08-07T09:48:50.248Z,95205.19
2022-08-07T09:52:15.777Z,95193.63
2022-08-07T09:54:48.237Z,95196.81
2022-08-07T09:57:31.708Z,95197.50
2022-08-07T10:00:14.998Z,95190.75
2022-08-07T10:02:56.605Z,95182.75
2022-08-07T10:06:00.895Z,95178.09
2022-08-07T10:08:44.406Z,95191.00
2022-08-07T10:12:03.094Z,95194.38
2022-08-07T10:15:15.366Z,95184.75
2022-08-07T10:18:01.179Z,95194.88
2022-08-07T10:20:50.808Z,95196.47
2022-08-07T10:24:06.372Z,95175.00
2022-08-07T10:27:01.043Z,95184.13
2022-08-07T10:29:54.997Z,95188.28
2022-08-07T10:32:36.788Z,95170.59
2022-08-07T10:36:05.525Z,95171.69
2022-08-07T10:38:58.189Z,95174.00
2022-08-07T10:41:52.393Z,95163.16
2022-08-07T10:44:38.309Z,95179.25
2022-08-07T10:47:52.524Z,95178.72
2022-08-07T10:50:34.630Z,95172.56
2022-08-07T10:53:27.656Z,95170.38
2022-08-07T10:56:30.107Z,95174.97
2022-08-07T10:59:30.402Z,95174.50
2022-08-07T11:02:32.764Z,95170.44
2022-08-07T11:05:50.433Z,95179.84
2022-08-07T11:08:36.645Z,95164.66
2022-08-07T11:11:20.273Z,95162.81
2022-08-07T11:14:44.639Z,95151.25
2022-08-07T11:17:23.474Z,95150.38
2022-08-07T11:20:24.506Z,95159.22
2022-08-07T11:23:09.256Z,95157.88
2022-08-07T11:25:49.814Z,95162.44
2022-08-07T11:28:24.859Z,95138.31
2022-08-07T11:30:51.430Z,95148.81
2022-08-07T11:33:54.354Z,95136.78
2022-08-07T11:36:40.796Z,95140.94
2022-08-07T11:39:07.462Z,95142.38
2022-08-07T11:42:01.330Z,95143.25
2022-08-07T11:44:52.736Z,95135.59
2022-08-07T11:48:05.976Z,95133.53
2022-08-07T11:51:41.717Z,95134.63
2022-08-07T11:54:10.250Z,95132.28
2022-08-07T11:56:53.228Z,95132.78
2022-08-07T12:00:11.876Z,95130.72
2022-08-07T12:03:00.170Z,95121.19
2022-08-07T12:05:58.352Z,95125.75
2022-08-07T12:08:37.892Z,95142.41
2022-08-07T12:11:20.718Z,95119.81
2022-08-07T12:14:13.131Z,95128.19
2022-08-07T12:16:53.743Z,95118.78
2022-08-07T12:20:02.794Z,95115.78
2022-08-07T12:23:09.103Z,95118.63
2022-08-07T12:26:06.271Z,95121.00
2022-08-07T12:28:54.959Z,95122.19
2022-08-07T12:31:53.340Z,95122.75
2022-08-07T12:34:26.018Z,95117.84
2022-08-07T12:36:56.405Z,95110.06
2022-08-07T12:39:42.698Z,95111.97
2022-08-07T12:42:13.352Z,95105.78
2022-08-07T12:44:45.245Z,95101.97
2022-08-07T12:47:37.543Z,95108.78
2022-08-07T12:50:39.235Z,95108.91
2022-08-07T12:53:19.251Z,95103.69
2022-08-07T12:56:17.184Z,95110.72
2022-08-07T12:58:46.861Z,95105.09
2022-08-07T13:01:32.132Z,95092.41
2022-08-07T13:04:33.998Z,95100.59
2022-08-07T13:08:12.051Z,95097.59
2022-08-07T13:10:29.301Z,95094.53
2022-08-07T13:13:02.264Z,95091.41
2022-08-07T13:15:43.023Z,95083.38
2022-08-07T13:18:44.510Z,95078.56
2022-08-07T13:21:50.331Z,95078.84
2022-08-07T13:24:54.109Z,95081.81
2022-08-07T13:28:05.855Z,95063.06
2022-08-07T13:30:19.004Z,95068.22
2022-08-07T13:32:55.342Z,95068.50
2022-08-07T13:35:59.523Z,95066.44
2022-08-07T13:38:41.904Z,95069.22
2022-08-07T13:41:16.535Z,95078.94
2022-08-07T13:43:52.686Z,95069.34
2022-08-07T13:46:32.825Z,95060.03
2022-08-07T13:49:04.127Z,95062.88
2022-08-07T13:52:23.016Z,95064.00
2022-08-07T13:54:30.476Z,95066.78
2022-08-07T13:57:02.661Z,95056.25
2022-08-07T13:59:34.592Z,95049.59
2022-08-07T14:02:10.490Z,95064.38
2022-08-07T14:04:50.076Z,95061.09
2022-08-07T14:07:33.598Z,95062.19
2022-08-07T14:10:20.419Z,95057.19
2022-08-07T14:13:02.930Z,95061.03
2022-08-07T14:15:39.489Z,95060.38
2022-08-07T14:18:30.741Z,95061.78
2022-08-07T14:22:00.743Z,95061.88
2022-08-07T14:24:06.722Z,95061.16
2022-08-07T14:26:39.276Z,95059.03
2022-08-07T14:30:08.043Z,95056.00
2022-08-07T14:32:01.588Z,95046.63
2022-08-07T14:34:30.881Z,95053.59
2022-08-07T14:37:03.163Z,95060.34
2022-08-07T14:40:16.418Z,95059.72
2022-08-07T14:42:32.621Z,95045.81
2022-08-07T14:45:21.432Z,95049.34
2022-08-07T14:47:53.044Z,95049.34
2022-08-07T14:50:28.027Z,95045.94
2022-08-07T14:52:56.646Z,95053.38
2022-08-07T14:55:35.528Z,95048.06
2022-08-07T14:58:27.241Z,95049.47
2022-08-07T15:00:55.397Z,95051.66
2022-08-07T15:03:52.339Z,95051.28
2022-08-07T15:06:15.303Z,95054.41
2022-08-07T15:08:50.418Z,95040.66
2022-08-07T15:11:54.112Z,95050.72
2022-08-07T15:20:31.561Z,95056.13
2022-08-07T15:25:55.498Z,95052.88
2022-08-07T15:32:00.685Z,95054.91
2022-08-07T15:34:02.819Z,95046.94
2022-08-07T15:42:46.003Z,95048.41
2022-08-07T15:44:53.336Z,95050.00
2022-08-07T15:48:00.380Z,95050.69
2022-08-07T15:51:01.247Z,95048.34
2022-08-07T15:53:15.223Z,95054.47
2022-08-07T15:56:02.524Z,95042.00
2022-08-07T15:58:38.536Z,95040.91
2022-08-07T16:01:12.515Z,95039.47
2022-08-07T16:03:46.401Z,95044.19
2022-08-07T16:06:14.697Z,95043.00
2022-08-07T16:08:45.628Z,95042.53
2022-08-07T16:11:41.500Z,95039.16
2022-08-07T16:14:34.344Z,95034.88
2022-08-07T16:18:00.813Z,95032.56
2022-08-07T16:21:44.044Z,95041.22
2022-08-07T16:23:58.850Z,95038.78
2022-08-07T16:26:30.945Z,95039.06
2022-08-07T16:30:11.167Z,95029.41
2022-08-07T16:32:32.946Z,95033.84
2022-08-07T16:35:57.024Z,95037.63
2022-08-07T16:38:19.284Z,95032.25
2022-08-07T16:41:18.276Z,95033.66
2022-08-07T16:44:40.554Z,95027.31
2022-08-07T16:47:25.191Z,95031.50
2022-08-07T16:50:35.740Z,95034.88
2022-08-07T16:54:02.608Z,95035.41
2022-08-07T16:56:49.804Z,95041.25
2022-08-07T16:59:46.681Z,95039.56
2022-08-07T17:02:53.633Z,95038.25
2022-08-07T17:06:02.264Z,95042.88
2022-08-07T17:09:04.394Z,95047.28
2022-08-07T17:12:04.936Z,95045.41
2022-08-07T17:15:05.984Z,95041.13
2022-08-07T17:17:44.255Z,95042.81
2022-08-07T17:20:22.205Z,95048.03
2022-08-07T17:23:02.611Z,95023.75
2022-08-07T17:25:52.276Z,95046.41
2022-08-07T17:28:57.652Z,95042.94
2022-08-07T17:31:44.276Z,95048.66
2022-08-07T17:35:08.858Z,95051.78
2022-08-07T17:38:06.897Z,95052.06
2022-08-07T17:40:43.329Z,95043.31
2022-08-07T17:43:39.663Z,95050.56
2022-08-07T17:46:37.999Z,95046.38
2022-08-07T17:49:44.601Z,95045.09
2022-08-07T17:52:41.139Z,95055.09
2022-08-07T17:55:12.655Z,95045.09
2022-08-07T17:58:08.159Z,95056.41
2022-08-07T18:00:48.803Z,95056.25
2022-08-07T18:03:21.508Z,95066.44
2022-08-07T18:06:02.691Z,95053.97
2022-08-07T18:09:01.295Z,95052.47
2022-08-07T18:12:17.898Z,95069.09
2022-08-07T18:14:50.898Z,95077.72
2022-08-07T18:18:47.642Z,95073.19
2022-08-07T18:21:08.290Z,95081.53
2022-08-07T18:23:43.321Z,95094.09
2022-08-07T18:26:16.302Z,95101.28
2022-08-07T18:28:58.545Z,95105.81
2022-08-07T18:31:40.599Z,95112.03
2022-08-07T18:35:01.536Z,95113.56
2022-08-07T18:38:59.265Z,95119.19
2022-08-07T18:41:09.408Z,95113.56
2022-08-07T18:43:57.652Z,95123.19
2022-08-07T18:46:37.338Z,95120.59
2022-08-07T18:50:32.315Z,95123.59
2022-08-07T18:52:53.690Z,95128.97
2022-08-07T18:55:42.931Z,95131.03
2022-08-07T18:58:51.772Z,95131.44
2022-08-07T19:02:32.905Z,95135.25
2022-08-07T19:04:57.874Z,95136.19
2022-08-07T19:07:59.356Z,95136.19
2022-08-07T19:10:51.221Z,95143.06
2022-08-07T19:13:34.015Z,95140.50
2022-08-07T19:16:43.640Z,95144.59
2022-08-07T19:19:16.181Z,95138.78
2022-08-07T19:22:04.607Z,95136.25
2022-08-07T19:24:48.805Z,95137.19
2022-08-07T19:28:30.086Z,95146.63
2022-08-07T19:31:01.926Z,95152.25
2022-08-07T19:33:08.312Z,95148.00
2022-08-07T19:35:42.044Z,95151.94
2022-08-07T19:38:16.742Z,95160.94
2022-08-07T19:40:49.945Z,95120.53
2022-08-07T19:43:43.623Z,95156.25
2022-08-07T19:46:22.351Z,95159.88
2022-08-07T19:49:04.512Z,95148.56
2022-08-07T19:51:52.760Z,95161.22
2022-08-07T19:54:34.191Z,95151.50
2022-08-07T19:58:00.143Z,95145.81
2022-08-07T20:00:08.833Z,95148.75
2022-08-07T20:02:52.142Z,95149.84
2022-08-07T20:05:28.127Z,95144.16
2022-08-07T20:08:04.727Z,95145.28
2022-08-07T20:10:54.368Z,95139.00
2022-08-07T20:13:42.162Z,95125.06
2022-08-07T20:16:22.435Z,95127.91
2022-08-07T20:18:59.303Z,95140.41
2022-08-07T20:21:41.728Z,95135.06
2022-08-07T20:24:28.832Z,95134.75
2022-08-07T20:27:01.954Z,95134.75
2022-08-07T20:29:49.402Z,95124.50
2022-08-07T20:32:25.220Z,95127.59
2022-08-07T20:34:56.044Z,95137.00
2022-08-07T20:37:59.262Z,95120.38
2022-08-07T20:40:37.434Z,95136.75
2022-08-07T20:43:16.953Z,95139.81
2022-08-07T20:46:27.105Z,95137.22
2022-08-07T20:49:53.995Z,95135.50
2022-08-07T20:51:30.838Z,95128.06
2022-08-07T20:54:15.158Z,95132.31
2022-08-07T20:56:46.227Z,95132.31
2022-08-07T21:00:05.541Z,95118.16
2022-08-07T21:02:31.659Z,95126.22
2022-08-07T21:04:59.319Z,95117.56
2022-08-07T21:07:28.179Z,95125.22
2022-08-07T21:10:00.392Z,95123.47
2022-08-07T21:12:31.757Z,95128.16
2022-08-07T21:15:02.455Z,95088.78
2022-08-07T21:18:01.929Z,95092.22
2022-08-07T21:20:29.885Z,95114.59
2022-08-07T21:23:08.389Z,95109.47
2022-08-07T21:26:03.112Z,95127.72
2022-08-07T21:28:48.281Z,95133.63
2022-08-07T21:32:10.956Z,95132.38
2022-08-07T21:34:33.330Z,95132.06
2022-08-07T21:37:07.763Z,95127.78
2022-08-07T21:39:44.739Z,95140.25
2022-08-07T21:42:42.246Z,95135.28
2022-08-07T21:46:08.117Z,95140.66
2022-08-07T21:48:28.261Z,95141.75
2022-08-07T21:51:02.008Z,95144.09
2022-08-07T21:53:46.478Z,95151.03
2022-08-07T21:56:39.595Z,95161.19
2022-08-07T21:59:29.660Z,95154.28
2022-08-07T22:02:11.315Z,95154.63
2022-08-07T22:04:53.470Z,95153.91
2022-08-07T22:07:31.870Z,95150.22
2022-08-07T22:10:14.398Z,95156.09
2022-08-07T22:12:59.383Z,95152.53
2022-08-07T22:16:38.653Z,95152.03
2022-08-07T22:18:24.151Z,95162.34
2022-08-07T22:21:14.436Z,95157.91
2022-08-07T22:23:47.900Z,95160.06
2022-08-07T22:26:23.197Z,95162.16
2022-08-07T22:29:15.058Z,95157.38
2022-08-07T22:32:05.561Z,95160.75
2022-08-07T22:34:41.045Z,95163.25
2022-08-07T22:38:03.311Z,95162.56
2022-08-07T22:40:49.736Z,95168.94
2022-08-07T22:43:23.445Z,95171.06
2022-08-07T22:47:02.265Z,95167.16
2022-08-07T22:49:33.993Z,95179.75
2022-08-07T22:52:36.848Z,95170.34
2022-08-07T22:55:30.809Z,95176.19
2022-08-07T22:58:02.809Z,95163.38
2022-08-07T23:00:40.749Z,95168.72
2022-08-07T23:03:58.062Z,95176.38
2022-08-07T23:06:36.209Z,95174.91
2022-08-07T23:10:04.644Z,95172.09
2022-08-07T23:12:36.907Z,95167.09
2022-08-07T23:15:03.544Z,95168.16
2022-08-07T23:18:02.224Z,95167.63
2022-08-07T23:20:51.258Z,95161.38
2022-08-07T23:24:06.554Z,95161.91
2022-08-07T23:26:19.188Z,95150.56
2022-08-07T23:30:36.227Z,95149.81
2022-08-07T23:34:35.551Z,95149.81
2022-08-07T23:35:54.323Z,95148.91
2022-08-07T23:38:36.948Z,95145.00
2022-08-07T23:42:02.079Z,95122.38
2022-08-07T23:44:54.523Z,95149.38
2022-08-07T23:47:42.245Z,95153.47
2022-08-07T23:50:22.732Z,95149.16
2022-08-07T23:53:08.674Z,95132.97
2022-08-07T23:55:54.262Z,95141.00
2022-08-07T23:58:38.439Z,95145.63
